sensor_id;sensor_type;location;lat;lon;timestamp;P1;durP1;ratioP1;P2;durP2;ratioP2
49139;SDS011;34959;49.310;8.646;2023-06-14T00:00:09;5.70;;;2.85;;
49139;SDS011;34959;49.310;8.646;2023-06-14T00:02:38;3.13;;;2.30;;
49139;SDS011;34959;49.310;8.646;2023-06-14T00:05:04;3.05;;;2.30;;
49139;SDS011;34959;49.310;8.646;2023-06-14T00:07:37;3.08;;;2.50;;
49139;SDS011;34959;49.310;8.646;2023-06-14T00:10:04;5.50;;;2.70;;
49139;SDS011;34959;49.310;8.646;2023-06-14T00:12:30;3.78;;;2.60;;
49139;SDS011;34959;49.310;8.646;2023-06-14T00:14:56;4.10;;;2.83;;
49139;SDS011;34959;49.310;8.646;2023-06-14T00:17:22;5.10;;;2.60;;
49139;SDS011;34959;49.310;8.646;2023-06-14T00:19:47;3.20;;;2.50;;
49139;SDS011;34959;49.310;8.646;2023-06-14T00:22:14;9.07;;;2.55;;
49139;SDS011;34959;49.310;8.646;2023-06-14T00:24:39;4.90;;;2.63;;
49139;SDS011;34959;49.310;8.646;2023-06-14T00:27:05;2.70;;;2.38;;
49139;SDS011;34959;49.310;8.646;2023-06-14T00:29:31;5.78;;;2.30;;
49139;SDS011;34959;49.310;8.646;2023-06-14T00:31:56;3.95;;;2.60;;
49139;SDS011;34959;49.310;8.646;2023-06-14T00:34:22;6.95;;;2.90;;
49139;SDS011;34959;49.310;8.646;2023-06-14T00:36:47;5.85;;;2.88;;
49139;SDS011;34959;49.310;8.646;2023-06-14T00:39:13;3.33;;;2.20;;
49139;SDS011;34959;49.310;8.646;2023-06-14T00:41:38;4.70;;;3.10;;
49139;SDS011;34959;49.310;8.646;2023-06-14T00:44:05;4.10;;;2.65;;
49139;SDS011;34959;49.310;8.646;2023-06-14T00:46:31;3.55;;;2.60;;
49139;SDS011;34959;49.310;8.646;2023-06-14T00:48:56;3.58;;;2.80;;
49139;SDS011;34959;49.310;8.646;2023-06-14T00:51:23;4.38;;;2.55;;
49139;SDS011;34959;49.310;8.646;2023-06-14T00:53:50;5.95;;;3.20;;
49139;SDS011;34959;49.310;8.646;2023-06-14T00:56:15;3.72;;;2.60;;
49139;SDS011;34959;49.310;8.646;2023-06-14T00:58:41;5.38;;;2.70;;
49139;SDS011;34959;49.310;8.646;2023-06-14T01:01:07;3.58;;;2.70;;
49139;SDS011;34959;49.310;8.646;2023-06-14T01:03:34;3.17;;;2.50;;
49139;SDS011;34959;49.310;8.646;2023-06-14T01:06:05;3.42;;;2.80;;
49139;SDS011;34959;49.310;8.646;2023-06-14T01:08:45;4.05;;;2.83;;
49139;SDS011;34959;49.310;8.646;2023-06-14T01:13:43;4.45;;;2.70;;
49139;SDS011;34959;49.310;8.646;2023-06-14T01:16:10;4.25;;;2.88;;
49139;SDS011;34959;49.310;8.646;2023-06-14T01:18:36;3.55;;;2.42;;
49139;SDS011;34959;49.310;8.646;2023-06-14T01:21:01;3.40;;;2.67;;
49139;SDS011;34959;49.310;8.646;2023-06-14T01:23:30;6.65;;;3.03;;
49139;SDS011;34959;49.310;8.646;2023-06-14T01:25:58;3.88;;;2.65;;
49139;SDS011;34959;49.310;8.646;2023-06-14T01:28:25;4.63;;;2.90;;
49139;SDS011;34959;49.310;8.646;2023-06-14T01:30:54;4.28;;;2.60;;
49139;SDS011;34959;49.310;8.646;2023-06-14T01:33:21;4.47;;;2.80;;
49139;SDS011;34959;49.310;8.646;2023-06-14T01:35:49;5.88;;;2.60;;
49139;SDS011;34959;49.310;8.646;2023-06-14T01:38:15;3.50;;;2.83;;
49139;SDS011;34959;49.310;8.646;2023-06-14T01:40:45;4.18;;;2.63;;
49139;SDS011;34959;49.310;8.646;2023-06-14T01:43:14;4.13;;;2.45;;
49139;SDS011;34959;49.310;8.646;2023-06-14T01:45:41;4.28;;;2.53;;
49139;SDS011;34959;49.310;8.646;2023-06-14T01:48:10;3.75;;;2.72;;
49139;SDS011;34959;49.310;8.646;2023-06-14T01:50:35;5.47;;;2.92;;
49139;SDS011;34959;49.310;8.646;2023-06-14T01:53:00;4.45;;;2.30;;
49139;SDS011;34959;49.310;8.646;2023-06-14T01:55:26;4.15;;;2.83;;
49139;SDS011;34959;49.310;8.646;2023-06-14T01:57:52;3.67;;;2.50;;
49139;SDS011;34959;49.310;8.646;2023-06-14T02:00:18;3.95;;;2.58;;
49139;SDS011;34959;49.310;8.646;2023-06-14T02:02:44;4.07;;;2.60;;
49139;SDS011;34959;49.310;8.646;2023-06-14T02:05:09;3.72;;;2.42;;
49139;SDS011;34959;49.310;8.646;2023-06-14T02:07:35;3.15;;;2.75;;
49139;SDS011;34959;49.310;8.646;2023-06-14T02:10:02;3.63;;;2.72;;
49139;SDS011;34959;49.310;8.646;2023-06-14T02:12:28;3.75;;;2.83;;
49139;SDS011;34959;49.310;8.646;2023-06-14T02:14:53;5.60;;;2.60;;
49139;SDS011;34959;49.310;8.646;2023-06-14T02:17:19;3.97;;;2.95;;
49139;SDS011;34959;49.310;8.646;2023-06-14T02:19:45;4.28;;;2.75;;
49139;SDS011;34959;49.310;8.646;2023-06-14T02:22:11;3.65;;;2.70;;
49139;SDS011;34959;49.310;8.646;2023-06-14T02:24:36;3.90;;;2.70;;
49139;SDS011;34959;49.310;8.646;2023-06-14T02:27:02;3.50;;;2.65;;
49139;SDS011;34959;49.310;8.646;2023-06-14T02:29:28;3.25;;;2.50;;
49139;SDS011;34959;49.310;8.646;2023-06-14T02:31:53;4.85;;;2.78;;
49139;SDS011;34959;49.310;8.646;2023-06-14T02:34:19;3.65;;;2.83;;
49139;SDS011;34959;49.310;8.646;2023-06-14T02:36:45;4.18;;;2.88;;
49139;SDS011;34959;49.310;8.646;2023-06-14T02:39:12;3.30;;;2.78;;
49139;SDS011;34959;49.310;8.646;2023-06-14T02:41:38;5.07;;;2.70;;
49139;SDS011;34959;49.310;8.646;2023-06-14T02:44:03;4.20;;;2.83;;
49139;SDS011;34959;49.310;8.646;2023-06-14T02:46:29;5.22;;;2.78;;
49139;SDS011;34959;49.310;8.646;2023-06-14T02:48:55;3.65;;;2.70;;
49139;SDS011;34959;49.310;8.646;2023-06-14T02:51:20;3.92;;;2.70;;
49139;SDS011;34959;49.310;8.646;2023-06-14T02:53:45;2.88;;;2.50;;
49139;SDS011;34959;49.310;8.646;2023-06-14T02:56:11;3.15;;;2.80;;
49139;SDS011;34959;49.310;8.646;2023-06-14T02:58:37;3.30;;;2.85;;
49139;SDS011;34959;49.310;8.646;2023-06-14T03:01:04;3.67;;;2.60;;
49139;SDS011;34959;49.310;8.646;2023-06-14T03:03:30;3.25;;;2.58;;
49139;SDS011;34959;49.310;8.646;2023-06-14T03:05:56;4.07;;;2.60;;
49139;SDS011;34959;49.310;8.646;2023-06-14T03:08:22;5.97;;;2.88;;
49139;SDS011;34959;49.310;8.646;2023-06-14T03:10:52;3.65;;;2.80;;
49139;SDS011;34959;49.310;8.646;2023-06-14T03:13:18;3.88;;;2.90;;
49139;SDS011;34959;49.310;8.646;2023-06-14T03:15:47;3.70;;;2.80;;
49139;SDS011;34959;49.310;8.646;2023-06-14T03:18:15;4.55;;;2.80;;
49139;SDS011;34959;49.310;8.646;2023-06-14T03:20:41;4.72;;;2.95;;
49139;SDS011;34959;49.310;8.646;2023-06-14T03:23:07;5.47;;;2.85;;
49139;SDS011;34959;49.310;8.646;2023-06-14T03:25:33;3.92;;;2.83;;
49139;SDS011;34959;49.310;8.646;2023-06-14T03:28:01;3.92;;;2.70;;
49139;SDS011;34959;49.310;8.646;2023-06-14T03:30:27;7.10;;;3.20;;
49139;SDS011;34959;49.310;8.646;2023-06-14T03:32:52;3.95;;;2.90;;
49139;SDS011;34959;49.310;8.646;2023-06-14T03:35:18;3.60;;;2.80;;
49139;SDS011;34959;49.310;8.646;2023-06-14T03:37:44;3.65;;;2.90;;
49139;SDS011;34959;49.310;8.646;2023-06-14T03:40:10;5.00;;;2.80;;
49139;SDS011;34959;49.310;8.646;2023-06-14T03:42:37;5.15;;;2.80;;
49139;SDS011;34959;49.310;8.646;2023-06-14T03:45:03;3.83;;;2.70;;
49139;SDS011;34959;49.310;8.646;2023-06-14T03:47:29;3.85;;;2.88;;
49139;SDS011;34959;49.310;8.646;2023-06-14T03:49:54;3.20;;;2.42;;
49139;SDS011;34959;49.310;8.646;2023-06-14T03:52:20;3.97;;;2.67;;
49139;SDS011;34959;49.310;8.646;2023-06-14T03:54:47;4.25;;;3.30;;
49139;SDS011;34959;49.310;8.646;2023-06-14T03:57:12;6.90;;;3.28;;
49139;SDS011;34959;49.310;8.646;2023-06-14T03:59:38;4.95;;;3.20;;
49139;SDS011;34959;49.310;8.646;2023-06-14T04:02:03;4.63;;;3.42;;
49139;SDS011;34959;49.310;8.646;2023-06-14T04:04:29;5.45;;;3.33;;
49139;SDS011;34959;49.310;8.646;2023-06-14T04:06:55;5.20;;;3.20;;
49139;SDS011;34959;49.310;8.646;2023-06-14T04:09:22;4.68;;;3.15;;
49139;SDS011;34959;49.310;8.646;2023-06-14T04:11:50;3.45;;;2.75;;
49139;SDS011;34959;49.310;8.646;2023-06-14T04:14:17;5.00;;;3.00;;
49139;SDS011;34959;49.310;8.646;2023-06-14T04:16:43;5.13;;;3.35;;
49139;SDS011;34959;49.310;8.646;2023-06-14T04:19:09;5.50;;;3.20;;
49139;SDS011;34959;49.310;8.646;2023-06-14T04:21:34;7.82;;;3.17;;
49139;SDS011;34959;49.310;8.646;2023-06-14T04:24:00;4.60;;;3.20;;
49139;SDS011;34959;49.310;8.646;2023-06-14T04:26:26;7.30;;;3.20;;
49139;SDS011;34959;49.310;8.646;2023-06-14T04:28:55;5.03;;;3.33;;
49139;SDS011;34959;49.310;8.646;2023-06-14T04:31:22;7.15;;;2.83;;
49139;SDS011;34959;49.310;8.646;2023-06-14T04:33:50;4.90;;;2.88;;
49139;SDS011;34959;49.310;8.646;2023-06-14T04:36:16;4.93;;;3.40;;
49139;SDS011;34959;49.310;8.646;2023-06-14T04:38:42;4.85;;;3.10;;
49139;SDS011;34959;49.310;8.646;2023-06-14T04:41:10;4.38;;;3.20;;
49139;SDS011;34959;49.310;8.646;2023-06-14T04:43:36;4.85;;;3.25;;
49139;SDS011;34959;49.310;8.646;2023-06-14T04:46:03;6.80;;;3.20;;
49139;SDS011;34959;49.310;8.646;2023-06-14T04:48:30;4.75;;;3.28;;
49139;SDS011;34959;49.310;8.646;2023-06-14T04:50:56;6.80;;;3.10;;
49139;SDS011;34959;49.310;8.646;2023-06-14T04:53:22;4.30;;;3.20;;
49139;SDS011;34959;49.310;8.646;2023-06-14T04:55:48;6.18;;;3.05;;
49139;SDS011;34959;49.310;8.646;2023-06-14T04:58:15;3.85;;;3.28;;
49139;SDS011;34959;49.310;8.646;2023-06-14T05:00:41;6.57;;;3.70;;
49139;SDS011;34959;49.310;8.646;2023-06-14T05:03:08;4.10;;;3.30;;
49139;SDS011;34959;49.310;8.646;2023-06-14T05:05:34;6.32;;;3.60;;
49139;SDS011;34959;49.310;8.646;2023-06-14T05:07:59;4.75;;;3.10;;
49139;SDS011;34959;49.310;8.646;2023-06-14T05:10:25;3.60;;;2.92;;
49139;SDS011;34959;49.310;8.646;2023-06-14T05:12:50;5.38;;;3.28;;
49139;SDS011;34959;49.310;8.646;2023-06-14T05:15:17;5.50;;;3.22;;
49139;SDS011;34959;49.310;8.646;2023-06-14T05:17:45;4.78;;;3.30;;
49139;SDS011;34959;49.310;8.646;2023-06-14T05:20:18;4.50;;;3.22;;
49139;SDS011;34959;49.310;8.646;2023-06-14T05:22:43;6.22;;;3.33;;
49139;SDS011;34959;49.310;8.646;2023-06-14T05:25:09;5.13;;;3.33;;
49139;SDS011;34959;49.310;8.646;2023-06-14T05:27:34;7.47;;;3.22;;
49139;SDS011;34959;49.310;8.646;2023-06-14T05:30:00;4.40;;;2.90;;
49139;SDS011;34959;49.310;8.646;2023-06-14T05:32:26;7.05;;;3.70;;
49139;SDS011;34959;49.310;8.646;2023-06-14T05:34:51;4.85;;;3.05;;
49139;SDS011;34959;49.310;8.646;2023-06-14T05:37:17;4.60;;;3.33;;
49139;SDS011;34959;49.310;8.646;2023-06-14T05:39:42;4.50;;;3.03;;
49139;SDS011;34959;49.310;8.646;2023-06-14T05:42:08;5.28;;;3.45;;
49139;SDS011;34959;49.310;8.646;2023-06-14T05:44:33;6.30;;;2.95;;
49139;SDS011;34959;49.310;8.646;2023-06-14T05:46:58;5.40;;;3.20;;
49139;SDS011;34959;49.310;8.646;2023-06-14T05:49:24;7.07;;;3.17;;
49139;SDS011;34959;49.310;8.646;2023-06-14T05:51:50;6.68;;;3.03;;
49139;SDS011;34959;49.310;8.646;2023-06-14T05:54:16;5.85;;;3.30;;
49139;SDS011;34959;49.310;8.646;2023-06-14T05:56:41;4.60;;;3.10;;
49139;SDS011;34959;49.310;8.646;2023-06-14T05:59:07;6.32;;;3.13;;
49139;SDS011;34959;49.310;8.646;2023-06-14T06:01:32;5.93;;;3.35;;
49139;SDS011;34959;49.310;8.646;2023-06-14T06:04:01;8.07;;;3.42;;
49139;SDS011;34959;49.310;8.646;2023-06-14T06:06:27;5.75;;;3.50;;
49139;SDS011;34959;49.310;8.646;2023-06-14T06:08:53;8.18;;;3.70;;
49139;SDS011;34959;49.310;8.646;2023-06-14T06:11:18;4.60;;;3.15;;
49139;SDS011;34959;49.310;8.646;2023-06-14T06:13:45;6.13;;;3.58;;
49139;SDS011;34959;49.310;8.646;2023-06-14T06:16:10;6.43;;;2.70;;
49139;SDS011;34959;49.310;8.646;2023-06-14T06:18:36;5.97;;;3.50;;
49139;SDS011;34959;49.310;8.646;2023-06-14T06:21:01;8.30;;;3.42;;
49139;SDS011;34959;49.310;8.646;2023-06-14T06:23:28;4.70;;;3.22;;
49139;SDS011;34959;49.310;8.646;2023-06-14T06:25:54;5.03;;;3.22;;
49139;SDS011;34959;49.310;8.646;2023-06-14T06:28:19;5.00;;;3.00;;
49139;SDS011;34959;49.310;8.646;2023-06-14T06:30:45;4.57;;;3.10;;
49139;SDS011;34959;49.310;8.646;2023-06-14T06:33:11;5.00;;;3.20;;
49139;SDS011;34959;49.310;8.646;2023-06-14T06:35:37;6.22;;;3.05;;
49139;SDS011;34959;49.310;8.646;2023-06-14T06:38:02;5.82;;;3.55;;
49139;SDS011;34959;49.310;8.646;2023-06-14T06:40:28;4.57;;;3.50;;
49139;SDS011;34959;49.310;8.646;2023-06-14T06:42:53;5.00;;;3.55;;
49139;SDS011;34959;49.310;8.646;2023-06-14T06:45:19;5.75;;;3.15;;
49139;SDS011;34959;49.310;8.646;2023-06-14T06:47:44;9.18;;;3.70;;
49139;SDS011;34959;49.310;8.646;2023-06-14T06:50:10;7.95;;;3.42;;
49139;SDS011;34959;49.310;8.646;2023-06-14T06:52:35;6.78;;;3.70;;
49139;SDS011;34959;49.310;8.646;2023-06-14T06:55:01;7.22;;;3.60;;
49139;SDS011;34959;49.310;8.646;2023-06-14T06:57:28;8.60;;;3.58;;
49139;SDS011;34959;49.310;8.646;2023-06-14T06:59:54;6.35;;;3.83;;
49139;SDS011;34959;49.310;8.646;2023-06-14T07:02:19;9.48;;;3.20;;
49139;SDS011;34959;49.310;8.646;2023-06-14T07:04:45;7.28;;;3.75;;
49139;SDS011;34959;49.310;8.646;2023-06-14T07:07:10;6.18;;;3.50;;
49139;SDS011;34959;49.310;8.646;2023-06-14T07:09:36;7.35;;;3.70;;
49139;SDS011;34959;49.310;8.646;2023-06-14T07:12:01;4.80;;;3.35;;
49139;SDS011;34959;49.310;8.646;2023-06-14T07:14:27;6.70;;;3.13;;
49139;SDS011;34959;49.310;8.646;2023-06-14T07:16:52;6.20;;;3.50;;
49139;SDS011;34959;49.310;8.646;2023-06-14T07:19:18;6.13;;;3.20;;
49139;SDS011;34959;49.310;8.646;2023-06-14T07:21:43;4.70;;;3.40;;
49139;SDS011;34959;49.310;8.646;2023-06-14T07:24:09;5.03;;;3.35;;
49139;SDS011;34959;49.310;8.646;2023-06-14T07:26:34;5.32;;;3.60;;
49139;SDS011;34959;49.310;8.646;2023-06-14T07:29:00;5.10;;;3.10;;
49139;SDS011;34959;49.310;8.646;2023-06-14T07:31:26;7.93;;;3.35;;
49139;SDS011;34959;49.310;8.646;2023-06-14T07:33:52;4.97;;;3.13;;
49139;SDS011;34959;49.310;8.646;2023-06-14T07:36:17;7.25;;;3.22;;
49139;SDS011;34959;49.310;8.646;2023-06-14T07:38:43;4.78;;;3.25;;
49139;SDS011;34959;49.310;8.646;2023-06-14T07:41:08;5.07;;;3.10;;
49139;SDS011;34959;49.310;8.646;2023-06-14T07:43:34;5.97;;;2.85;;
49139;SDS011;34959;49.310;8.646;2023-06-14T07:45:59;7.82;;;3.10;;
49139;SDS011;34959;49.310;8.646;2023-06-14T07:48:25;4.03;;;2.90;;
49139;SDS011;34959;49.310;8.646;2023-06-14T07:50:50;3.55;;;3.13;;
49139;SDS011;34959;49.310;8.646;2023-06-14T07:53:16;4.35;;;3.05;;
49139;SDS011;34959;49.310;8.646;2023-06-14T07:55:41;4.45;;;3.03;;
49139;SDS011;34959;49.310;8.646;2023-06-14T07:58:08;6.65;;;3.45;;
49139;SDS011;34959;49.310;8.646;2023-06-14T08:00:33;4.05;;;3.13;;
49139;SDS011;34959;49.310;8.646;2023-06-14T08:02:59;3.92;;;3.08;;
49139;SDS011;34959;49.310;8.646;2023-06-14T08:05:25;5.68;;;3.28;;
49139;SDS011;34959;49.310;8.646;2023-06-14T08:07:51;4.45;;;3.10;;
49139;SDS011;34959;49.310;8.646;2023-06-14T08:10:16;4.70;;;2.97;;
49139;SDS011;34959;49.310;8.646;2023-06-14T08:12:42;4.15;;;3.10;;
49139;SDS011;34959;49.310;8.646;2023-06-14T08:15:07;6.57;;;3.20;;
49139;SDS011;34959;49.310;8.646;2023-06-14T08:17:34;3.70;;;2.58;;
49139;SDS011;34959;49.310;8.646;2023-06-14T08:19:59;5.50;;;2.80;;
49139;SDS011;34959;49.310;8.646;2023-06-14T08:22:24;3.92;;;2.72;;
49139;SDS011;34959;49.310;8.646;2023-06-14T08:24:50;6.72;;;2.90;;
49139;SDS011;34959;49.310;8.646;2023-06-14T08:27:18;5.13;;;3.28;;
49139;SDS011;34959;49.310;8.646;2023-06-14T08:29:43;5.63;;;3.10;;
49139;SDS011;34959;49.310;8.646;2023-06-14T08:32:09;5.57;;;3.30;;
49139;SDS011;34959;49.310;8.646;2023-06-14T08:34:35;6.20;;;3.08;;
49139;SDS011;34959;49.310;8.646;2023-06-14T08:37:00;3.90;;;2.80;;
49139;SDS011;34959;49.310;8.646;2023-06-14T08:39:26;4.70;;;2.42;;
49139;SDS011;34959;49.310;8.646;2023-06-14T08:41:52;4.80;;;2.80;;
49139;SDS011;34959;49.310;8.646;2023-06-14T08:44:17;4.15;;;3.10;;
49139;SDS011;34959;49.310;8.646;2023-06-14T08:46:43;4.32;;;2.97;;
49139;SDS011;34959;49.310;8.646;2023-06-14T08:49:09;5.45;;;3.00;;
49139;SDS011;34959;49.310;8.646;2023-06-14T08:51:36;3.20;;;2.50;;
49139;SDS011;34959;49.310;8.646;2023-06-14T08:54:02;5.43;;;3.17;;
49139;SDS011;34959;49.310;8.646;2023-06-14T08:56:29;4.15;;;2.90;;
49139;SDS011;34959;49.310;8.646;2023-06-14T08:58:55;5.70;;;3.22;;
49139;SDS011;34959;49.310;8.646;2023-06-14T09:01:22;4.22;;;2.67;;
49139;SDS011;34959;49.310;8.646;2023-06-14T09:03:48;4.80;;;2.95;;
49139;SDS011;34959;49.310;8.646;2023-06-14T09:06:15;4.50;;;2.83;;
49139;SDS011;34959;49.310;8.646;2023-06-14T09:08:44;3.88;;;2.83;;
49139;SDS011;34959;49.310;8.646;2023-06-14T09:11:11;4.53;;;2.60;;
49139;SDS011;34959;49.310;8.646;2023-06-14T09:13:38;3.90;;;2.90;;
49139;SDS011;34959;49.310;8.646;2023-06-14T09:16:04;3.92;;;2.97;;
49139;SDS011;34959;49.310;8.646;2023-06-14T09:18:37;4.28;;;2.60;;
49139;SDS011;34959;49.310;8.646;2023-06-14T09:21:05;4.70;;;3.05;;
49139;SDS011;34959;49.310;8.646;2023-06-14T09:23:33;4.32;;;2.38;;
49139;SDS011;34959;49.310;8.646;2023-06-14T09:26:01;3.35;;;2.83;;
49139;SDS011;34959;49.310;8.646;2023-06-14T09:28:27;5.75;;;3.05;;
49139;SDS011;34959;49.310;8.646;2023-06-14T09:30:52;5.03;;;3.03;;
49139;SDS011;34959;49.310;8.646;2023-06-14T09:33:18;4.82;;;2.65;;
49139;SDS011;34959;49.310;8.646;2023-06-14T09:35:50;4.15;;;2.97;;
49139;SDS011;34959;49.310;8.646;2023-06-14T09:38:16;4.68;;;2.58;;
49139;SDS011;34959;49.310;8.646;2023-06-14T09:40:41;3.53;;;2.38;;
49139;SDS011;34959;49.310;8.646;2023-06-14T09:43:07;6.38;;;2.88;;
49139;SDS011;34959;49.310;8.646;2023-06-14T09:45:35;3.72;;;2.63;;
49139;SDS011;34959;49.310;8.646;2023-06-14T09:48:01;3.85;;;2.60;;
49139;SDS011;34959;49.310;8.646;2023-06-14T09:50:27;3.50;;;2.72;;
49139;SDS011;34959;49.310;8.646;2023-06-14T09:52:52;3.33;;;2.65;;
49139;SDS011;34959;49.310;8.646;2023-06-14T09:55:21;2.75;;;2.33;;
49139;SDS011;34959;49.310;8.646;2023-06-14T09:57:47;4.25;;;2.47;;
49139;SDS011;34959;49.310;8.646;2023-06-14T10:00:14;4.00;;;2.72;;
49139;SDS011;34959;49.310;8.646;2023-06-14T10:02:40;4.60;;;2.88;;
49139;SDS011;34959;49.310;8.646;2023-06-14T10:05:12;3.42;;;2.50;;
49139;SDS011;34959;49.310;8.646;2023-06-14T10:07:42;3.92;;;2.72;;
49139;SDS011;34959;49.310;8.646;2023-06-14T10:10:13;3.42;;;2.80;;
49139;SDS011;34959;49.310;8.646;2023-06-14T10:12:39;3.83;;;2.90;;
49139;SDS011;34959;49.310;8.646;2023-06-14T10:15:05;3.92;;;2.67;;
49139;SDS011;34959;49.310;8.646;2023-06-14T10:17:35;3.30;;;2.42;;
49139;SDS011;34959;49.310;8.646;2023-06-14T10:20:16;3.05;;;2.40;;
49139;SDS011;34959;49.310;8.646;2023-06-14T10:22:48;4.90;;;2.67;;
49139;SDS011;34959;49.310;8.646;2023-06-14T10:25:28;3.33;;;2.60;;
49139;SDS011;34959;49.310;8.646;2023-06-14T10:31:27;3.75;;;2.60;;
49139;SDS011;34959;49.310;8.646;2023-06-14T10:33:48;6.70;;;2.65;;
49139;SDS011;34959;49.310;8.646;2023-06-14T10:38:46;3.40;;;2.70;;
49139;SDS011;34959;49.310;8.646;2023-06-14T10:41:34;4.05;;;2.63;;
49139;SDS011;34959;49.310;8.646;2023-06-14T10:46:38;5.18;;;2.40;;
49139;SDS011;34959;49.310;8.646;2023-06-14T10:49:04;4.75;;;2.60;;
49139;SDS011;34959;49.310;8.646;2023-06-14T10:51:31;4.65;;;2.58;;
49139;SDS011;34959;49.310;8.646;2023-06-14T10:54:11;3.70;;;2.38;;
49139;SDS011;34959;49.310;8.646;2023-06-14T10:56:38;6.45;;;2.75;;
49139;SDS011;34959;49.310;8.646;2023-06-14T10:59:14;3.33;;;2.60;;
49139;SDS011;34959;49.310;8.646;2023-06-14T11:01:45;4.22;;;2.55;;
49139;SDS011;34959;49.310;8.646;2023-06-14T11:04:17;10.63;;;2.78;;
49139;SDS011;34959;49.310;8.646;2023-06-14T11:06:46;5.28;;;2.60;;
49139;SDS011;34959;49.310;8.646;2023-06-14T11:11:50;3.78;;;2.70;;
49139;SDS011;34959;49.310;8.646;2023-06-14T11:14:16;3.17;;;2.33;;
49139;SDS011;34959;49.310;8.646;2023-06-14T11:16:47;6.45;;;2.60;;
49139;SDS011;34959;49.310;8.646;2023-06-14T11:19:13;3.63;;;2.60;;
49139;SDS011;34959;49.310;8.646;2023-06-14T11:21:41;5.13;;;2.70;;
49139;SDS011;34959;49.310;8.646;2023-06-14T11:24:09;4.05;;;2.38;;
49139;SDS011;34959;49.310;8.646;2023-06-14T11:26:37;4.05;;;2.38;;
49139;SDS011;34959;49.310;8.646;2023-06-14T11:29:02;4.40;;;2.53;;
49139;SDS011;34959;49.310;8.646;2023-06-14T11:31:28;3.17;;;2.28;;
49139;SDS011;34959;49.310;8.646;2023-06-14T11:33:57;4.15;;;2.47;;
49139;SDS011;34959;49.310;8.646;2023-06-14T11:36:27;5.68;;;2.30;;
49139;SDS011;34959;49.310;8.646;2023-06-14T11:39:03;4.68;;;2.35;;
49139;SDS011;34959;49.310;8.646;2023-06-14T11:44:05;4.30;;;2.30;;
49139;SDS011;34959;49.310;8.646;2023-06-14T11:46:32;5.15;;;2.45;;
49139;SDS011;34959;49.310;8.646;2023-06-14T11:48:57;3.08;;;2.33;;
49139;SDS011;34959;49.310;8.646;2023-06-14T11:51:23;5.20;;;2.20;;
49139;SDS011;34959;49.310;8.646;2023-06-14T11:53:48;3.83;;;2.65;;
49139;SDS011;34959;49.310;8.646;2023-06-14T11:56:14;4.60;;;2.65;;
49139;SDS011;34959;49.310;8.646;2023-06-14T11:58:40;3.85;;;2.33;;
49139;SDS011;34959;49.310;8.646;2023-06-14T12:01:14;6.97;;;2.60;;
49139;SDS011;34959;49.310;8.646;2023-06-14T12:03:48;4.72;;;2.13;;
49139;SDS011;34959;49.310;8.646;2023-06-14T12:06:15;4.85;;;2.33;;
49139;SDS011;34959;49.310;8.646;2023-06-14T12:08:40;3.10;;;2.20;;
49139;SDS011;34959;49.310;8.646;2023-06-14T12:11:13;6.93;;;2.33;;
49139;SDS011;34959;49.310;8.646;2023-06-14T12:13:41;5.30;;;2.65;;
49139;SDS011;34959;49.310;8.646;2023-06-14T12:16:07;3.80;;;2.25;;
49139;SDS011;34959;49.310;8.646;2023-06-14T12:18:34;3.63;;;2.30;;
49139;SDS011;34959;49.310;8.646;2023-06-14T12:21:01;5.45;;;2.38;;
49139;SDS011;34959;49.310;8.646;2023-06-14T12:23:41;5.60;;;2.25;;
49139;SDS011;34959;49.310;8.646;2023-06-14T12:26:15;4.32;;;2.00;;
49139;SDS011;34959;49.310;8.646;2023-06-14T12:28:41;2.20;;;2.00;;
49139;SDS011;34959;49.310;8.646;2023-06-14T12:31:11;2.55;;;1.98;;
49139;SDS011;34959;49.310;8.646;2023-06-14T12:33:37;3.58;;;2.15;;
49139;SDS011;34959;49.310;8.646;2023-06-14T12:36:03;4.70;;;2.17;;
49139;SDS011;34959;49.310;8.646;2023-06-14T12:38:30;3.20;;;2.25;;
49139;SDS011;34959;49.310;8.646;2023-06-14T12:40:56;2.38;;;1.80;;
49139;SDS011;34959;49.310;8.646;2023-06-14T12:43:22;4.95;;;2.10;;
49139;SDS011;34959;49.310;8.646;2023-06-14T12:45:48;4.22;;;1.92;;
49139;SDS011;34959;49.310;8.646;2023-06-14T12:48:13;4.93;;;2.17;;
49139;SDS011;34959;49.310;8.646;2023-06-14T12:50:39;2.88;;;2.03;;
49139;SDS011;34959;49.310;8.646;2023-06-14T12:53:04;4.55;;;2.42;;
49139;SDS011;34959;49.310;8.646;2023-06-14T12:55:30;4.55;;;1.90;;
49139;SDS011;34959;49.310;8.646;2023-06-14T12:57:55;2.58;;;2.10;;
49139;SDS011;34959;49.310;8.646;2023-06-14T13:00:20;2.92;;;2.20;;
49139;SDS011;34959;49.310;8.646;2023-06-14T13:02:47;4.53;;;1.80;;
49139;SDS011;34959;49.310;8.646;2023-06-14T13:05:12;2.70;;;2.00;;
49139;SDS011;34959;49.310;8.646;2023-06-14T13:07:37;3.30;;;2.10;;
49139;SDS011;34959;49.310;8.646;2023-06-14T13:10:03;4.63;;;2.15;;
49139;SDS011;34959;49.310;8.646;2023-06-14T13:12:29;3.67;;;1.90;;
49139;SDS011;34959;49.310;8.646;2023-06-14T13:14:54;2.30;;;1.90;;
49139;SDS011;34959;49.310;8.646;2023-06-14T13:17:19;13.10;;;2.72;;
49139;SDS011;34959;49.310;8.646;2023-06-14T13:19:45;49.33;;;4.53;;
49139;SDS011;34959;49.310;8.646;2023-06-14T13:22:10;15.65;;;3.47;;
49139;SDS011;34959;49.310;8.646;2023-06-14T13:24:36;15.90;;;3.30;;
49139;SDS011;34959;49.310;8.646;2023-06-14T13:27:02;13.10;;;3.35;;
49139;SDS011;34959;49.310;8.646;2023-06-14T13:29:27;12.20;;;2.92;;
49139;SDS011;34959;49.310;8.646;2023-06-14T13:31:53;10.82;;;2.95;;
49139;SDS011;34959;49.310;8.646;2023-06-14T13:34:19;8.02;;;2.92;;
49139;SDS011;34959;49.310;8.646;2023-06-14T13:36:45;8.13;;;2.75;;
49139;SDS011;34959;49.310;8.646;2023-06-14T13:39:10;9.18;;;2.85;;
49139;SDS011;34959;49.310;8.646;2023-06-14T13:41:36;8.35;;;2.60;;
49139;SDS011;34959;49.310;8.646;2023-06-14T13:44:01;7.72;;;2.63;;
49139;SDS011;34959;49.310;8.646;2023-06-14T13:46:29;4.90;;;2.58;;
49139;SDS011;34959;49.310;8.646;2023-06-14T13:48:54;6.20;;;2.50;;
49139;SDS011;34959;49.310;8.646;2023-06-14T13:51:20;5.07;;;2.38;;
49139;SDS011;34959;49.310;8.646;2023-06-14T13:53:49;6.30;;;2.42;;
49139;SDS011;34959;49.310;8.646;2023-06-14T13:56:15;7.38;;;2.78;;
49139;SDS011;34959;49.310;8.646;2023-06-14T13:58:41;5.13;;;2.50;;
49139;SDS011;34959;49.310;8.646;2023-06-14T14:01:07;5.30;;;2.20;;
49139;SDS011;34959;49.310;8.646;2023-06-14T14:03:33;5.68;;;2.30;;
49139;SDS011;34959;49.310;8.646;2023-06-14T14:06:00;7.95;;;2.55;;
49139;SDS011;34959;49.310;8.646;2023-06-14T14:08:26;5.70;;;2.58;;
49139;SDS011;34959;49.310;8.646;2023-06-14T14:10:51;6.57;;;2.60;;
49139;SDS011;34959;49.310;8.646;2023-06-14T14:13:17;4.28;;;2.40;;
49139;SDS011;34959;49.310;8.646;2023-06-14T14:15:42;5.40;;;2.30;;
49139;SDS011;34959;49.310;8.646;2023-06-14T14:18:08;5.18;;;2.50;;
49139;SDS011;34959;49.310;8.646;2023-06-14T14:20:34;6.78;;;2.10;;
49139;SDS011;34959;49.310;8.646;2023-06-14T14:22:59;4.32;;;2.10;;
49139;SDS011;34959;49.310;8.646;2023-06-14T14:25:25;3.67;;;1.98;;
49139;SDS011;34959;49.310;8.646;2023-06-14T14:27:50;3.25;;;2.00;;
49139;SDS011;34959;49.310;8.646;2023-06-14T14:30:16;4.28;;;2.40;;
49139;SDS011;34959;49.310;8.646;2023-06-14T14:32:42;4.88;;;2.17;;
49139;SDS011;34959;49.310;8.646;2023-06-14T14:35:08;4.95;;;2.28;;
49139;SDS011;34959;49.310;8.646;2023-06-14T14:37:33;5.82;;;2.10;;
49139;SDS011;34959;49.310;8.646;2023-06-14T14:39:59;4.68;;;2.00;;
49139;SDS011;34959;49.310;8.646;2023-06-14T14:42:24;7.03;;;2.30;;
49139;SDS011;34959;49.310;8.646;2023-06-14T14:44:51;4.47;;;2.20;;
49139;SDS011;34959;49.310;8.646;2023-06-14T14:47:17;5.22;;;2.50;;
49139;SDS011;34959;49.310;8.646;2023-06-14T14:49:42;4.30;;;1.90;;
49139;SDS011;34959;49.310;8.646;2023-06-14T14:52:07;4.35;;;2.00;;
49139;SDS011;34959;49.310;8.646;2023-06-14T14:54:33;6.88;;;2.42;;
49139;SDS011;34959;49.310;8.646;2023-06-14T14:56:58;5.43;;;2.28;;
49139;SDS011;34959;49.310;8.646;2023-06-14T14:59:24;4.55;;;2.10;;